createdAt,value
2022-09-02T00:02:06.099Z,2.10
2022-09-02T00:04:35.206Z,2.03
2022-09-02T00:07:02.804Z,2.30
2022-09-02T00:09:30.385Z,2.10
2022-09-02T00:11:58.153Z,1.90
2022-09-02T00:14:35.661Z,1.90
2022-09-02T00:17:04.351Z,2.50
2022-09-02T00:19:32.687Z,2.05
2022-09-02T00:22:03.331Z,2.00
2022-09-02T00:24:31.673Z,1.92
2022-09-02T00:26:59.257Z,2.38
2022-09-02T00:29:27.486Z,2.25
2022-09-02T00:31:55.388Z,2.17
2022-09-02T00:34:23.253Z,1.95
2022-09-02T00:36:50.941Z,2.38
2022-09-02T00:39:19.914Z,2.10
2022-09-02T00:41:47.561Z,2.42
2022-09-02T00:44:18.265Z,2.25
2022-09-02T00:46:46.552Z,2.30
2022-09-02T00:49:18.636Z,2.10
2022-09-02T00:51:52.365Z,1.98
2022-09-02T00:54:23.823Z,2.08
2022-09-02T00:56:53.862Z,2.90
2022-09-02T00:59:28.575Z,2.30
2022-09-02T01:01:56.411Z,2.22
2022-09-02T01:04:24.156Z,2.20
2022-09-02T01:06:52.274Z,2.20
2022-09-02T01:09:21.280Z,2.22
2022-09-02T01:11:55.207Z,2.45
2022-09-02T01:14:24.144Z,2.03
2022-09-02T01:16:59.944Z,1.88
2022-09-02T01:19:30.797Z,2.38
2022-09-02T01:21:59.926Z,1.92
2022-09-02T01:24:31.061Z,2.00
2022-09-02T01:27:00.369Z,2.03
2022-09-02T01:29:29.382Z,2.03
2022-09-02T01:31:57.418Z,1.88
2022-09-02T01:34:25.194Z,2.17
2022-09-02T01:36:53.175Z,2.00
2022-09-02T01:39:22.042Z,2.00
2022-09-02T01:41:49.603Z,1.80
2022-09-02T01:44:17.833Z,2.25
2022-09-02T01:46:46.386Z,2.08
2022-09-02T01:49:14.174Z,2.03
2022-09-02T01:51:42.038Z,2.47
2022-09-02T01:54:09.856Z,2.00
2022-09-02T01:56:39.111Z,2.50
2022-09-02T01:59:07.830Z,1.60
2022-09-02T02:01:35.733Z,2.08
2022-09-02T02:04:04.175Z,2.10
2022-09-02T02:06:32.033Z,2.00
2022-09-02T02:08:59.628Z,2.22
2022-09-02T02:11:27.467Z,2.40
2022-09-02T02:13:56.389Z,2.17
2022-09-02T02:16:24.085Z,2.15
2022-09-02T02:18:51.687Z,2.15
2022-09-02T02:21:19.235Z,1.80
2022-09-02T02:23:48.536Z,1.80
2022-09-02T02:26:16.357Z,2.05
2022-09-02T02:28:44.120Z,2.15
2022-09-02T02:31:13.321Z,2.22
2022-09-02T02:33:40.917Z,2.20
2022-09-02T02:36:09.897Z,1.73
2022-09-02T02:38:39.151Z,2.47
2022-09-02T02:41:07.394Z,2.00
2022-09-02T02:43:35.866Z,1.88
2022-09-02T02:46:04.315Z,1.70
2022-09-02T02:48:33.829Z,1.80
2022-09-02T02:51:01.442Z,2.05
2022-09-02T02:53:31.226Z,1.70
2022-09-02T02:55:59.374Z,1.90
2022-09-02T02:58:27.171Z,2.00
2022-09-02T03:00:54.832Z,2.10
2022-09-02T03:03:22.628Z,2.00
2022-09-02T03:05:52.553Z,1.85
2022-09-02T03:08:21.960Z,1.77
2022-09-02T03:10:54.447Z,1.67
2022-09-02T03:13:24.871Z,1.80
2022-09-02T03:15:52.889Z,2.00
2022-09-02T03:18:20.780Z,1.90
2022-09-02T03:20:48.319Z,2.30
2022-09-02T03:23:18.882Z,2.42
2022-09-02T03:25:47.295Z,2.15
2022-09-02T03:28:15.407Z,2.28
2022-09-02T03:30:43.483Z,2.28
2022-09-02T03:33:11.126Z,2.30
2022-09-02T03:35:41.468Z,2.05
2022-09-02T03:38:09.924Z,2.45
2022-09-02T03:40:40.125Z,2.17
2022-09-02T03:43:07.838Z,2.80
2022-09-02T03:45:35.673Z,2.58
2022-09-02T03:48:04.553Z,3.30
2022-09-02T03:50:36.441Z,2.28
2022-09-02T03:53:04.584Z,3.15
2022-09-02T03:55:32.232Z,2.97
2022-09-02T03:58:03.434Z,2.60
2022-09-02T04:00:34.146Z,2.47
2022-09-02T04:03:03.693Z,2.60
2022-09-02T04:05:32.045Z,2.33
2022-09-02T04:08:00.596Z,2.47
2022-09-02T04:10:28.267Z,2.28
2022-09-02T04:12:55.941Z,2.28
2022-09-02T04:15:25.211Z,2.65
2022-09-02T04:17:52.777Z,2.38
2022-09-02T04:20:20.486Z,2.22
2022-09-02T04:22:48.061Z,2.90
2022-09-02T04:25:15.648Z,3.50
2022-09-02T04:27:43.279Z,2.40
2022-09-02T04:30:11.740Z,3.53
2022-09-02T04:32:41.127Z,2.88
2022-09-02T04:35:09.007Z,2.50
2022-09-02T04:37:36.594Z,2.22
2022-09-02T04:40:05.351Z,2.40
2022-09-02T04:42:32.988Z,2.33
2022-09-02T04:45:00.782Z,2.00
2022-09-02T04:47:28.933Z,2.33
2022-09-02T04:49:58.450Z,2.45
2022-09-02T04:52:26.485Z,2.53
2022-09-02T04:54:54.075Z,2.70
2022-09-02T04:57:21.646Z,2.50
2022-09-02T04:59:49.821Z,3.03
2022-09-02T05:02:18.315Z,2.50
2022-09-02T05:04:46.207Z,2.10
2022-09-02T05:07:16.062Z,2.17
2022-09-02T05:09:44.168Z,2.60
2022-09-02T05:12:11.860Z,2.13
2022-09-02T05:14:39.628Z,2.10
2022-09-02T05:17:07.988Z,2.38
2022-09-02T05:19:35.778Z,2.13
2022-09-02T05:22:05.015Z,2.58
2022-09-02T05:24:34.162Z,2.38
2022-09-02T05:27:01.788Z,2.47
2022-09-02T05:29:29.593Z,2.22
2022-09-02T05:31:57.506Z,2.30
2022-09-02T05:34:25.261Z,2.28
2022-09-02T05:36:53.854Z,2.00
2022-09-02T05:39:21.681Z,2.10
2022-09-02T05:41:50.623Z,2.10
2022-09-02T05:44:18.247Z,2.20
2022-09-02T05:46:48.933Z,2.20
2022-09-02T05:49:18.299Z,2.30
2022-09-02T05:51:48.428Z,2.33
2022-09-02T05:54:18.773Z,1.90
2022-09-02T05:56:52.667Z,1.98
2022-09-02T05:59:21.245Z,2.20
2022-09-02T06:01:49.468Z,2.45
2022-09-02T06:04:17.298Z,2.70
2022-09-02T06:06:44.998Z,2.20
2022-09-02T06:09:14.521Z,2.05
2022-09-02T06:11:44.670Z,1.95
2022-09-02T06:14:15.055Z,2.67
2022-09-02T06:16:43.574Z,2.13
2022-09-02T06:19:11.272Z,1.92
2022-09-02T06:21:39.982Z,1.83
2022-09-02T06:24:08.728Z,2.25
2022-09-02T06:26:37.581Z,1.80
2022-09-02T06:29:06.624Z,2.08
2022-09-02T06:31:36.194Z,2.13
2022-09-02T06:34:04.799Z,1.80
2022-09-02T06:36:33.107Z,1.95
2022-09-02T06:39:01.891Z,1.90
2022-09-02T06:41:33.468Z,2.28
2022-09-02T06:44:03.535Z,2.33
2022-09-02T06:46:38.490Z,1.70
2022-09-02T06:49:07.827Z,1.80
2022-09-02T06:51:38.374Z,1.75
2022-09-02T06:54:07.211Z,1.60
2022-09-02T06:56:35.657Z,1.73
2022-09-02T06:59:04.196Z,1.63
2022-09-02T07:01:33.328Z,1.70
2022-09-02T07:04:16.399Z,1.70
2022-09-02T07:06:46.221Z,1.95
2022-09-02T07:09:16.482Z,2.00
2022-09-02T07:11:47.762Z,1.98
2022-09-02T07:14:16.029Z,1.70
2022-09-02T07:16:46.548Z,1.50
2022-09-02T07:19:20.494Z,1.70
2022-09-02T07:21:49.437Z,1.50
2022-09-02T07:24:18.467Z,1.67
2022-09-02T07:26:46.665Z,1.40
2022-09-02T07:29:14.701Z,1.70
2022-09-02T07:31:44.428Z,1.70
2022-09-02T07:34:14.990Z,1.50
2022-09-02T07:36:45.795Z,1.30
2022-09-02T07:39:14.895Z,1.25
2022-09-02T07:41:44.992Z,1.70
2022-09-02T07:44:13.597Z,1.40
2022-09-02T07:46:42.200Z,1.33
2022-09-02T07:49:15.595Z,1.10
2022-09-02T07:51:49.279Z,1.45
2022-09-02T07:54:19.159Z,1.42
2022-09-02T07:56:47.127Z,1.20
2022-09-02T07:59:14.713Z,1.00
2022-09-02T08:04:18.701Z,1.17
2022-09-02T08:06:47.696Z,1.02
2022-09-02T08:09:15.325Z,0.80
2022-09-02T08:11:46.521Z,0.70
2022-09-02T08:14:18.149Z,1.00
2022-09-02T08:16:46.801Z,0.82
2022-09-02T08:19:16.209Z,0.90
2022-09-02T08:21:43.812Z,0.90
2022-09-02T08:24:13.151Z,0.90
2022-09-02T08:26:40.838Z,0.70
2022-09-02T08:29:09.949Z,1.00
2022-09-02T08:31:38.190Z,0.80
2022-09-02T08:34:06.535Z,0.90
2022-09-02T08:36:34.259Z,0.50
2022-09-02T08:39:03.560Z,0.80
2022-09-02T08:41:40.102Z,0.95
2022-09-02T08:44:08.602Z,0.63
2022-09-02T08:46:36.724Z,0.70
2022-09-02T08:49:10.079Z,0.70
2022-09-02T08:51:42.810Z,0.50
2022-09-02T08:54:21.232Z,0.60
2022-09-02T08:56:51.826Z,0.77
2022-09-02T08:59:22.547Z,0.60
2022-09-02T09:01:57.772Z,0.82
2022-09-02T09:04:44.493Z,0.52
2022-09-02T09:07:25.607Z,0.70
2022-09-02T09:10:03.957Z,0.55
2022-09-02T09:12:49.464Z,0.60
2022-09-02T09:15:23.379Z,0.50
2022-09-02T09:17:58.163Z,0.55
2022-09-02T09:20:28.235Z,0.60
2022-09-02T09:22:57.932Z,0.57
2022-09-02T09:25:30.087Z,0.60
2022-09-02T09:27:59.647Z,0.47
2022-09-02T09:30:27.639Z,0.50
2022-09-02T09:32:57.447Z,0.65
2022-09-02T09:35:26.548Z,0.30
2022-09-02T09:37:55.230Z,0.57
2022-09-02T09:40:33.519Z,0.73
2022-09-02T09:43:15.956Z,0.50
2022-09-02T09:45:45.684Z,0.25
2022-09-02T09:48:24.003Z,0.70
2022-09-02T09:51:17.081Z,0.70
2022-09-02T09:53:45.289Z,0.32
2022-09-02T09:56:38.457Z,0.50
2022-09-02T09:59:31.630Z,0.40
2022-09-02T10:02:01.690Z,0.40
2022-09-02T10:04:49.764Z,0.70
2022-09-02T10:07:38.581Z,0.30
2022-09-02T10:10:18.386Z,0.40
2022-09-02T10:12:49.205Z,0.40
2022-09-02T10:15:30.150Z,0.50
2022-09-02T10:18:07.828Z,0.38
2022-09-02T10:21:04.844Z,0.20
2022-09-02T10:23:47.207Z,0.60
2022-09-02T10:26:27.383Z,0.75
2022-09-02T10:29:09.822Z,0.40
2022-09-02T10:31:46.472Z,0.70
2022-09-02T10:34:22.276Z,0.63
2022-09-02T10:37:11.143Z,0.40
2022-09-02T10:39:59.677Z,0.38
2022-09-02T10:42:36.227Z,0.40
2022-09-02T10:45:14.639Z,0.30
2022-09-02T10:47:47.615Z,0.47
2022-09-02T10:50:23.411Z,0.50
2022-09-02T10:53:03.747Z,0.38
2022-09-02T10:55:41.859Z,0.68
2022-09-02T10:58:18.181Z,0.40
2022-09-02T11:00:52.481Z,0.70
2022-09-02T11:03:29.306Z,0.60
2022-09-02T11:06:06.993Z,0.50
2022-09-02T11:08:41.530Z,0.55
2022-09-02T11:11:16.190Z,0.70
2022-09-02T11:13:58.871Z,0.50
2022-09-02T11:16:34.412Z,0.60
2022-09-02T11:19:14.110Z,0.40
2022-09-02T11:21:52.449Z,0.30
2022-09-02T11:24:28.474Z,0.50
2022-09-02T11:27:20.214Z,0.50
2022-09-02T11:30:03.661Z,0.50
2022-09-02T11:32:41.001Z,0.75
2022-09-02T11:35:16.534Z,0.65
2022-09-02T11:37:51.338Z,0.60
2022-09-02T11:40:36.795Z,0.47
2022-09-02T11:43:24.414Z,0.38
2022-09-02T11:46:15.306Z,0.60
2022-09-02T11:49:06.900Z,0.47
2022-09-02T11:52:02.005Z,0.43
2022-09-02T11:54:36.714Z,0.30
2022-09-02T11:57:07.254Z,0.75
2022-09-02T12:00:21.269Z,0.40
2022-09-02T12:02:53.400Z,0.45
2022-09-02T12:08:15.587Z,0.60
2022-09-02T12:11:02.509Z,0.60
2022-09-02T12:13:37.318Z,0.63
2022-09-02T12:16:39.017Z,0.45
2022-09-02T12:19:30.507Z,0.43
2022-09-02T12:22:29.462Z,0.50
2022-09-02T12:25:00.264Z,0.40
2022-09-02T12:27:31.556Z,0.80
2022-09-02T12:30:00.653Z,0.60
2022-09-02T12:33:12.753Z,0.57
2022-09-02T12:35:57.787Z,0.90
2022-09-02T12:38:31.966Z,0.60
2022-09-02T12:41:30.471Z,0.70
2022-09-02T12:44:23.918Z,0.50
2022-09-02T12:47:02.753Z,0.45
2022-09-02T12:49:50.609Z,0.70
2022-09-02T12:52:42.798Z,0.60
2022-09-02T12:55:17.887Z,0.80
2022-09-02T12:57:51.894Z,0.60
2022-09-02T13:00:31.705Z,0.60
2022-09-02T13:03:13.382Z,0.60
2022-09-02T13:05:55.347Z,0.40
2022-09-02T13:08:56.595Z,0.30
2022-09-02T13:12:02.012Z,0.60
2022-09-02T13:15:08.797Z,0.55
2022-09-02T13:17:56.251Z,0.70
2022-09-02T13:21:02.590Z,0.50
2022-09-02T13:24:16.020Z,0.60
2022-09-02T13:27:11.581Z,0.57
2022-09-02T13:30:20.880Z,0.60
2022-09-02T13:33:02.015Z,0.55
2022-09-02T13:35:31.713Z,0.65
2022-09-02T13:38:03.176Z,0.55
2022-09-02T13:40:34.277Z,0.70
2022-09-02T13:43:06.631Z,0.32
2022-09-02T13:45:36.731Z,0.40
2022-09-02T13:48:10.821Z,0.70
2022-09-02T13:50:44.155Z,0.60
2022-09-02T13:53:45.549Z,0.40
2022-09-02T13:56:12.076Z,0.65
2022-09-02T13:58:47.285Z,0.40
2022-09-02T14:01:22.460Z,0.60
2022-09-02T14:03:54.745Z,0.45
2022-09-02T14:06:27.045Z,0.40
2022-09-02T14:09:00.041Z,0.50
2022-09-02T14:11:30.266Z,0.77
2022-09-02T14:13:59.169Z,0.57
2022-09-02T14:16:33.630Z,0.90
2022-09-02T14:19:11.739Z,0.60
2022-09-02T14:21:47.803Z,0.68
2022-09-02T14:24:18.195Z,0.47
2022-09-02T14:26:49.518Z,0.40
2022-09-02T14:29:20.652Z,0.50
2022-09-02T14:32:03.882Z,0.40
2022-09-02T14:34:39.738Z,0.60
2022-09-02T14:37:23.306Z,0.65
2022-09-02T14:40:12.256Z,0.50
2022-09-02T14:42:48.731Z,0.60
2022-09-02T14:45:27.597Z,0.52
2022-09-02T14:47:57.835Z,0.50
2022-09-02T14:50:30.518Z,0.80
2022-09-02T14:53:04.930Z,0.57
2022-09-02T14:55:48.856Z,0.63
2022-09-02T14:58:19.229Z,0.60
2022-09-02T15:00:55.766Z,0.52
2022-09-02T15:03:24.349Z,0.52
2022-09-02T15:05:54.203Z,0.75
2022-09-02T15:08:22.777Z,0.73
2022-09-02T15:10:51.027Z,0.38
2022-09-02T15:13:27.109Z,0.60
2022-09-02T15:16:03.486Z,0.65
2022-09-02T15:18:32.069Z,0.40
2022-09-02T15:21:10.983Z,0.63
2022-09-02T15:23:41.101Z,0.52
2022-09-02T15:26:09.690Z,0.50
2022-09-02T15:28:38.658Z,0.55
2022-09-02T15:31:06.649Z,0.60
2022-09-02T15:33:34.852Z,0.60
2022-09-02T15:36:21.411Z,0.50
2022-09-02T15:38:49.385Z,0.57
2022-09-02T15:41:19.800Z,0.75
2022-09-02T15:43:49.011Z,0.50
2022-09-02T15:46:24.748Z,0.65
2022-09-02T15:48:53.317Z,0.60
2022-09-02T15:51:24.714Z,0.50
2022-09-02T15:53:56.820Z,0.70
2022-09-02T15:56:27.001Z,0.60
2022-09-02T15:58:59.127Z,0.60
2022-09-02T16:01:28.449Z,0.50
2022-09-02T16:04:04.123Z,0.80
2022-09-02T16:06:41.786Z,0.60
2022-09-02T16:09:23.196Z,0.60
2022-09-02T16:12:00.938Z,0.60
2022-09-02T16:14:38.519Z,0.57
2022-09-02T16:17:12.291Z,0.80
2022-09-02T16:19:47.806Z,0.50
2022-09-02T16:25:14.822Z,0.68
2022-09-02T16:27:58.456Z,0.75
2022-09-02T16:30:31.035Z,0.50
2022-09-02T16:33:04.690Z,0.50
2022-09-02T16:35:41.127Z,0.40
2022-09-02T16:38:19.991Z,0.75
2022-09-02T16:43:56.645Z,0.70
2022-09-02T16:46:25.590Z,0.60
2022-09-02T16:48:56.760Z,0.70
2022-09-02T16:54:21.181Z,0.50
2022-09-02T16:56:52.743Z,0.60
2022-09-02T16:59:20.274Z,0.60
2022-09-02T17:01:47.854Z,0.65
2022-09-02T17:04:15.446Z,0.50
2022-09-02T17:06:43.032Z,0.70
2022-09-02T17:09:10.864Z,0.45
2022-09-02T17:11:41.484Z,0.60
2022-09-02T17:14:11.112Z,0.80
2022-09-02T17:16:40.454Z,1.10
2022-09-02T17:19:08.695Z,0.52
2022-09-02T17:21:38.002Z,0.75
2022-09-02T17:24:07.602Z,0.80
2022-09-02T17:26:37.199Z,1.20
2022-09-02T17:29:17.301Z,0.68
2022-09-02T17:31:53.802Z,0.73
2022-09-02T17:34:21.648Z,0.70
2022-09-02T17:36:49.211Z,0.80
2022-09-02T17:39:18.489Z,1.15
2022-09-02T17:41:54.401Z,1.02
2022-09-02T17:44:25.182Z,0.60
2022-09-02T17:46:53.332Z,1.05
2022-09-02T17:49:21.540Z,1.30
2022-09-02T17:51:49.624Z,1.40
2022-09-02T17:54:17.212Z,1.58
2022-09-02T17:57:03.614Z,2.05
2022-09-02T17:59:43.283Z,1.70
2022-09-02T18:02:47.919Z,1.70
2022-09-02T18:05:29.001Z,0.90
2022-09-02T18:08:01.562Z,1.50
2022-09-02T18:10:34.428Z,1.42
2022-09-02T18:13:05.777Z,1.02
2022-09-02T18:15:41.862Z,0.67
2022-09-02T18:18:11.864Z,0.98
2022-09-02T18:20:43.469Z,1.13
2022-09-02T18:23:32.819Z,0.90
2022-09-02T18:26:11.668Z,0.90
2022-09-02T18:28:50.111Z,0.70
2022-09-02T18:31:35.922Z,1.10
2022-09-02T18:34:17.992Z,1.13
2022-09-02T18:36:55.593Z,0.85
2022-09-02T18:39:43.377Z,0.90
2022-09-02T18:42:23.910Z,1.10
2022-09-02T18:45:03.581Z,0.70
2022-09-02T18:47:38.007Z,0.82
2022-09-02T18:50:07.400Z,1.13
2022-09-02T18:52:37.310Z,0.90
2022-09-02T18:55:10.862Z,0.90
2022-09-02T18:57:45.123Z,0.82
2022-09-02T19:00:16.041Z,0.93
2022-09-02T19:02:50.075Z,0.80
2022-09-02T19:05:20.555Z,0.70
2022-09-02T19:08:12.242Z,0.90
2022-09-02T19:10:40.629Z,0.80
2022-09-02T19:13:08.382Z,0.90
2022-09-02T19:15:36.065Z,0.75
2022-09-02T19:18:06.270Z,0.77
2022-09-02T19:20:35.368Z,1.20
2022-09-02T19:23:06.889Z,1.50
2022-09-02T19:25:36.491Z,1.33
2022-09-02T19:28:06.152Z,1.13
2022-09-02T19:30:37.305Z,0.90
2022-09-02T19:33:09.164Z,1.03
2022-09-02T19:35:38.228Z,0.70
2022-09-02T19:38:06.014Z,0.82
2022-09-02T19:40:36.399Z,1.05
2022-09-02T19:43:07.493Z,1.15
2022-09-02T19:45:46.717Z,0.80
2022-09-02T19:48:16.565Z,0.85
2022-09-02T19:50:46.013Z,1.08
2022-09-02T19:53:19.155Z,0.80
2022-09-02T19:55:46.919Z,0.90
2022-09-02T19:58:14.627Z,0.70
2022-09-02T20:00:43.350Z,0.63
2022-09-02T20:03:11.380Z,0.70
2022-09-02T20:05:41.050Z,0.93
2022-09-02T20:08:09.724Z,0.90
2022-09-02T20:10:37.535Z,1.17
2022-09-02T20:13:05.594Z,0.70
2022-09-02T20:15:37.552Z,0.77
2022-09-02T20:18:11.529Z,0.90
2022-09-02T20:20:44.315Z,0.77
2022-09-02T20:23:17.035Z,0.68
2022-09-02T20:25:57.407Z,0.73
2022-09-02T20:28:26.520Z,0.80
2022-09-02T20:31:05.011Z,0.90
2022-09-02T20:33:41.060Z,0.93
2022-09-02T20:36:18.678Z,1.58
2022-09-02T20:39:18.171Z,1.92
2022-09-02T20:41:59.215Z,1.58
2022-09-02T20:44:43.246Z,1.10
2022-09-02T20:47:37.183Z,1.20
2022-09-02T20:50:22.342Z,0.70
2022-09-02T20:53:06.914Z,1.15
2022-09-02T20:55:41.365Z,0.75
2022-09-02T20:58:18.008Z,0.77
2022-09-02T21:00:54.571Z,0.75
2022-09-02T21:03:25.850Z,0.80
2022-09-02T21:05:58.265Z,0.82
2022-09-02T21:11:01.233Z,0.85
2022-09-02T21:13:41.557Z,0.70
2022-09-02T21:16:19.497Z,0.82
2022-09-02T21:18:53.313Z,0.60
2022-09-02T21:21:27.569Z,0.70
2022-09-02T21:24:02.453Z,0.93
2022-09-02T21:26:39.996Z,1.00
2022-09-02T21:29:16.227Z,0.60
2022-09-02T21:31:49.627Z,0.85
2022-09-02T21:34:24.402Z,0.60
2022-09-02T21:36:55.405Z,0.70
2022-09-02T21:39:28.229Z,0.70
2022-09-02T21:42:07.444Z,0.80
2022-09-02T21:44:45.720Z,0.80
2022-09-02T21:47:22.995Z,1.00
2022-09-02T21:50:04.349Z,0.70
2022-09-02T21:52:45.632Z,0.52
2022-09-02T21:55:26.604Z,0.65
2022-09-02T21:58:09.843Z,0.70
2022-09-02T22:00:39.123Z,1.02
2022-09-02T22:03:16.335Z,1.25
2022-09-02T22:05:53.279Z,0.82
2022-09-02T22:08:28.905Z,0.60
2022-09-02T22:11:09.557Z,0.80
2022-09-02T22:13:41.876Z,0.80
2022-09-02T22:18:55.330Z,0.70
2022-09-02T22:21:39.673Z,0.88
2022-09-02T22:24:08.280Z,0.68
2022-09-02T22:26:41.065Z,0.60
2022-09-02T22:29:17.298Z,0.57
2022-09-02T22:31:48.158Z,0.70
2022-09-02T22:34:18.620Z,0.60
2022-09-02T22:36:56.348Z,0.80
2022-09-02T22:39:33.747Z,0.75
2022-09-02T22:42:09.937Z,0.68
2022-09-02T22:45:00.657Z,1.00
2022-09-02T22:47:48.238Z,1.00
2022-09-02T22:50:39.404Z,0.90
2022-09-02T22:53:06.938Z,0.88
2022-09-02T22:55:47.006Z,0.80
2022-09-02T22:58:37.357Z,1.30
2022-09-02T23:01:15.256Z,1.05
2022-09-02T23:03:51.334Z,0.95
2022-09-02T23:24:05.719Z,0.90
2022-09-02T23:26:41.031Z,0.82
2022-09-02T23:29:18.821Z,0.93
2022-09-02T23:32:00.430Z,0.90
2022-09-02T23:34:44.123Z,0.75
2022-09-02T23:37:21.041Z,0.80
2022-09-02T23:39:59.544Z,0.95
2022-09-02T23:42:27.833Z,1.00
2022-09-02T23:45:08.283Z,0.77
2022-09-02T23:47:50.818Z,0.60
2022-09-02T23:50:27.578Z,0.88
2022-09-02T23:53:06.670Z,0.68
2022-09-02T23:55:48.728Z,0.80
2022-09-02T23:58:33.871Z,0.65
